Back to top

Rock Springs, WY weather

Rock Springs-Sweetwater County Airport, Rock Springs, WY: 8/07/2020 13:54
Visibility10 statute milesclear sky
View 7-Day Forecast
Area Summary
Sky/CloudsSky Clear
Weather [last 24 hours]None
Pressure30.13 in.Hg (1020 hPa)
Dew Point15.1 °F (-9.4 °C)
Relative Humidity6.85 %
Temperature87.1 °F (30.6 °C)red thermometer
Reading TimeMinimum to Maximum Temperature
6-hr ending 8/7@11:5451.1 °F to 82.9 °F (10.6 °C to 28.3 °C)
6-hr ending 8/7@05:5455 °F to 69.1 °F (12.8 °C to 20.6 °C)
6-hr ending 8/6@23:5466.9 °F to 86 °F (19.4 °C to 30 °C)
6-hr ending 8/6@17:5481 °F to 89.1 °F (27.2 °C to 31.7 °C)
24-hr ending 8/7@00:5459 °F to 89.1 °F (15 °C to 31.7 °C)
Wind20.7 MPH (18 KT) gusting to 29.9 MPH (26 KT)green arrow pointing 247.5 degrees
Wind FromWest/Southwest (240 Degrees)
Last Hour's Peak Wind32.2 MPH (28 KT) on 8/7@13:31
Last Hour's Peak Wind FromWest/Southwest (240 Degrees)
Rolling 24-hr Peak Wind42.6 MPH (37 KT) on 8/6@17:15
Rolling 24-hr Peak Wind FromWest/Southwest (250 Degrees)
Twilight Begins05:46Sunshine Yesterday
Sunrise06:17N/A
Sunset20:26
Twilight Ends20:57
METARKRKS 071954Z AUTO 24018G26KT 10SM CLR 31/M09 A3013 RMK AO2 PK WND 24028/1931 SLP103 T03061094
Tags: